Terminal Aerodrome Forecast
Issued by NWS

Home | Current Version | Previous Version | Graphics & Text | Print | Product List | Glossary On
Versions: 1 2 3 4 5 6 7 8 9 10 11 12 13 14 15 16
000
FTUS43 KICT 262341
TAFCNU
TAF
KCNU 262341Z 2700/2724 03006KT P6SM SCT050
     FM270400 09004KT P6SM FEW050
     FM271000 11007KT P6SM SCT025 BKN250
     FM271500 14013G19KT P6SM SCT025 BKN250
     FM272000 16011KT P6SM VCTS BKN025CB=

USA.gov is the U.S. government's official web portal to all federal, state and local government web resources and services.